Ponca City Regional

About

Name: Ponca City Regional
Identifier:  PNC/KPNC
Serves:  Ponca City, Oklahoma
Owner:  City of Ponca City
Public/Private:  Public
Local Time:  26. Jan 21:30 CST
Description: Ponca City Regional Airport is a city-owned airport two miles northwest of Ponca City, in Kay County, Oklahoma. Enrique's is a well known Mexican restaurant in the terminal.
Source: Wikipedia

Location

Ponca City Regional

Runways
Identifier Length (m/ft) Surface
17/35 2,195/7,201 Concrete

Statistics

Flights Per Day:
0 Flights
Distance: 748km (464mi)
Flights Delayed:
0% (0 Flights/Day Delayed)
Average Delay: 263 minutes

Current Weather

 4 C (Humidity: 80%)
  0kt (0km/h / 0mph) from 0°
  16km (10 mi.)
 METAR KPNC 270253Z AUTO 00000KT 10SM CLR 04/01 A3001 RMK AO2 SLP166 T00390011 53009

Claim Compensation

Claim compensation for your flight delay or cancellation
Flight delays happen, but that doesn’t mean you have to accept them. You may be entitled to as much as €600/$700 in compensation if your flight has been delayed, canceled or overbooked within the last three years.

Current Delays

Departures

N/A

Arrivals

N/A

Destinations

Map

Top Destinations

Airport Flights
per week
Seats
per week
  Tulsa (TUL) 0 - 0 0

Airlines & Planes

Top Airlines

Airline Flights
per day
Seats
per day
  Novair 0 -

Top Models

model Flights seats
Beech E90 King Air 0.0/day - 0